Tsiigehtchic, Canada
Current Conditions -  °F | °C
As of 3:00 PM on Sunday 25 Jan 2015 (Local Time) from CYEV Reporting Station
Light Snow Light Snow  
Wind Chill: -32°   Ceiling: 2000
Heat Index: -15°   Visibility: 2mi
Dew Point: -22°   Wind: 8mph
Humidity: 70%   Direction: 340°NNW
Pressure: 29.98"   Gusts: NA
Location:  67.43°N, 133.75°W
Report Text: CYEV 252200Z 34007KT 2SM -SN DRSN VV020 M26/M30 A2998 RMK SN8 SLP165
Loading
Personal Weather Stations






























Interactive Weather Map New forecast layout! Learn more

10-Day Weather Forecast

Advertisements
Track Severe Weather on mobile